createdAt,value
2023-09-30T00:01:53.178Z,13.70
2023-09-30T00:04:22.608Z,13.70
2023-09-30T00:06:50.519Z,13.70
2023-09-30T00:09:18.552Z,13.70
2023-09-30T00:11:46.454Z,13.70
2023-09-30T00:14:15.827Z,13.70
2023-09-30T00:16:43.723Z,13.70
2023-09-30T00:19:12.430Z,13.80
2023-09-30T00:21:41.773Z,13.70
2023-09-30T00:24:10.329Z,13.70
2023-09-30T00:26:38.275Z,13.70
2023-09-30T00:29:08.105Z,13.70
2023-09-30T00:31:35.997Z,13.70
2023-09-30T00:34:05.514Z,13.60
2023-09-30T00:36:33.454Z,13.70
2023-09-30T00:39:02.926Z,13.70
2023-09-30T00:41:30.764Z,13.70
2023-09-30T00:43:58.970Z,13.60
2023-09-30T00:46:29.283Z,13.60
2023-09-30T00:48:59.396Z,13.60
2023-09-30T00:51:28.470Z,13.50
2023-09-30T00:53:59.412Z,13.50
2023-09-30T00:56:31.928Z,13.50
2023-09-30T00:59:00.998Z,13.40
2023-09-30T01:01:28.184Z,13.40
2023-09-30T01:03:57.390Z,13.40
2023-09-30T01:06:25.580Z,13.40
2023-09-30T01:08:54.215Z,13.50
2023-09-30T01:11:23.305Z,13.50
2023-09-30T01:13:52.796Z,13.40
2023-09-30T01:16:21.770Z,13.40
2023-09-30T01:18:49.818Z,13.40
2023-09-30T01:21:18.822Z,13.40
2023-09-30T01:23:48.712Z,13.40
2023-09-30T01:26:16.700Z,13.30
2023-09-30T01:28:44.807Z,13.40
2023-09-30T01:31:12.786Z,13.40
2023-09-30T01:33:40.728Z,13.40
2023-09-30T01:36:08.766Z,13.40
2023-09-30T01:38:37.808Z,13.30
2023-09-30T01:41:07.186Z,13.30
2023-09-30T01:43:37.539Z,13.30
2023-09-30T01:46:06.413Z,13.30
2023-09-30T01:48:34.435Z,13.30
2023-09-30T01:51:02.425Z,13.30
2023-09-30T01:53:30.373Z,13.20
2023-09-30T01:55:58.299Z,13.20
2023-09-30T01:58:27.656Z,13.20
2023-09-30T02:00:56.282Z,13.20
2023-09-30T02:03:25.602Z,13.20
2023-09-30T02:05:53.522Z,13.20
2023-09-30T02:08:21.938Z,13.20
2023-09-30T02:10:50.040Z,13.20
2023-09-30T02:13:20.472Z,13.30
2023-09-30T02:15:51.021Z,13.30
2023-09-30T02:18:19.139Z,13.30
2023-09-30T02:20:49.001Z,13.30
2023-09-30T02:23:18.156Z,13.30
2023-09-30T02:25:47.389Z,13.30
2023-09-30T02:28:15.321Z,13.20
2023-09-30T02:30:44.039Z,13.20
2023-09-30T02:33:13.449Z,13.20
2023-09-30T02:35:46.462Z,13.10
2023-09-30T02:38:16.938Z,13.20
2023-09-30T02:40:47.476Z,13.20
2023-09-30T02:43:15.479Z,13.10
2023-09-30T02:45:43.560Z,13.10
2023-09-30T02:48:13.040Z,13.10
2023-09-30T02:50:41.533Z,13.10
2023-09-30T02:53:09.390Z,13.10
2023-09-30T02:55:37.329Z,13.10
2023-09-30T02:58:05.631Z,13.10
2023-09-30T03:00:34.493Z,13.20
2023-09-30T03:03:04.816Z,13.10
2023-09-30T03:05:34.577Z,13.10
2023-09-30T03:08:03.123Z,13.10
2023-09-30T03:10:31.052Z,13.10
2023-09-30T03:13:02.527Z,13.00
2023-09-30T03:15:31.913Z,13.00
2023-09-30T03:18:00.787Z,13.00
2023-09-30T03:20:29.128Z,13.00
2023-09-30T03:22:58.940Z,13.00
2023-09-30T03:25:27.008Z,13.00
2023-09-30T03:27:54.966Z,13.00
2023-09-30T03:30:23.026Z,13.00
2023-09-30T03:32:52.089Z,13.00
2023-09-30T03:35:19.970Z,13.00
2023-09-30T03:37:49.270Z,12.90
2023-09-30T03:40:21.091Z,13.00
2023-09-30T03:42:51.484Z,12.90
2023-09-30T03:45:20.571Z,12.90
2023-09-30T03:47:49.760Z,12.90
2023-09-30T03:50:18.423Z,13.00
2023-09-30T03:52:48.076Z,13.00
2023-09-30T03:55:20.237Z,13.00
2023-09-30T03:57:50.691Z,12.90
2023-09-30T04:00:20.361Z,12.90
2023-09-30T04:02:51.162Z,12.90
2023-09-30T04:05:20.872Z,12.90
2023-09-30T04:07:49.133Z,12.90
2023-09-30T04:10:21.520Z,12.90
2023-09-30T04:12:50.131Z,12.90
2023-09-30T04:15:18.236Z,12.80
2023-09-30T04:17:46.369Z,12.80
2023-09-30T04:20:23.945Z,12.80
2023-09-30T04:22:52.252Z,12.80
2023-09-30T04:25:21.873Z,12.80
2023-09-30T04:27:50.523Z,12.70
2023-09-30T04:30:19.189Z,12.80
2023-09-30T04:32:47.676Z,12.80
2023-09-30T04:35:16.312Z,12.80
2023-09-30T04:37:44.552Z,12.80
2023-09-30T04:40:16.556Z,12.80
2023-09-30T04:42:48.018Z,12.70
2023-09-30T04:45:17.934Z,12.70
2023-09-30T04:47:46.828Z,12.70
2023-09-30T04:50:17.228Z,12.70
2023-09-30T04:52:46.084Z,12.70
2023-09-30T04:55:16.860Z,12.70
2023-09-30T04:57:46.701Z,12.70
2023-09-30T05:00:16.253Z,12.70
2023-09-30T05:02:45.936Z,12.70
2023-09-30T05:05:14.055Z,12.70
2023-09-30T05:07:42.243Z,12.70
2023-09-30T05:10:14.319Z,12.70
2023-09-30T05:12:46.484Z,12.70
2023-09-30T05:15:20.442Z,12.70
2023-09-30T05:17:49.227Z,12.80
2023-09-30T05:20:19.182Z,12.80
2023-09-30T05:22:48.024Z,12.70
2023-09-30T05:25:17.761Z,12.80
2023-09-30T05:27:49.152Z,12.80
2023-09-30T05:30:21.361Z,12.80
2023-09-30T05:32:53.487Z,12.80
2023-09-30T05:35:23.355Z,12.80
2023-09-30T05:37:53.679Z,12.80
2023-09-30T05:40:26.011Z,12.90
2023-09-30T05:42:55.343Z,12.90
2023-09-30T05:45:27.238Z,12.90
2023-09-30T05:47:56.109Z,12.90
2023-09-30T05:50:27.270Z,12.90
2023-09-30T05:52:56.168Z,12.90
2023-09-30T05:55:26.252Z,13.00
2023-09-30T05:57:55.033Z,12.90
2023-09-30T06:00:25.082Z,13.00
2023-09-30T06:02:53.711Z,13.00
2023-09-30T06:05:23.109Z,13.00
2023-09-30T06:07:51.480Z,13.00
2023-09-30T06:10:20.504Z,13.00
2023-09-30T06:12:49.031Z,13.10
2023-09-30T06:15:22.607Z,13.10
2023-09-30T06:17:52.960Z,13.10
2023-09-30T06:20:20.626Z,13.10
2023-09-30T06:22:50.154Z,13.20
2023-09-30T06:25:18.723Z,13.10
2023-09-30T06:27:46.977Z,13.20
2023-09-30T06:30:17.251Z,13.30
2023-09-30T06:32:46.065Z,13.30
2023-09-30T06:35:15.719Z,13.30
2023-09-30T06:37:46.628Z,13.40
2023-09-30T06:40:15.159Z,13.50
2023-09-30T06:42:43.616Z,13.50
2023-09-30T06:45:13.861Z,13.60
2023-09-30T06:47:42.835Z,13.60
2023-09-30T06:50:13.256Z,13.60
2023-09-30T06:52:43.651Z,13.60
2023-09-30T06:55:15.969Z,13.60
2023-09-30T06:57:44.181Z,13.60
2023-09-30T07:00:14.264Z,13.70
2023-09-30T07:02:43.743Z,13.80
2023-09-30T07:05:13.414Z,13.80
2023-09-30T07:07:44.241Z,13.90
2023-09-30T07:10:12.971Z,13.90
2023-09-30T07:12:41.309Z,13.90
2023-09-30T07:15:10.378Z,13.90
2023-09-30T07:17:38.860Z,14.00
2023-09-30T07:20:07.942Z,14.10
2023-09-30T07:22:52.234Z,14.20
2023-09-30T07:25:25.771Z,14.30
2023-09-30T07:27:53.696Z,14.40
2023-09-30T07:30:21.846Z,14.50
2023-09-30T07:32:49.877Z,14.60
2023-09-30T07:35:18.001Z,14.70
2023-09-30T07:37:46.490Z,14.80
2023-09-30T07:40:16.041Z,14.90
2023-09-30T07:42:45.302Z,15.10
2023-09-30T07:45:17.812Z,15.20
2023-09-30T07:47:47.413Z,15.30
2023-09-30T07:50:15.441Z,15.40
2023-09-30T07:52:43.556Z,15.60
2023-09-30T07:55:12.052Z,15.70
2023-09-30T07:57:42.964Z,15.90
2023-09-30T08:00:16.685Z,15.80
2023-09-30T08:02:45.947Z,15.80
2023-09-30T08:05:14.308Z,16.00
2023-09-30T08:07:43.100Z,16.10
2023-09-30T08:10:14.529Z,16.10
2023-09-30T08:12:43.463Z,16.10
2023-09-30T08:15:13.933Z,16.00
2023-09-30T08:17:42.189Z,16.10
2023-09-30T08:20:10.814Z,16.20
2023-09-30T08:22:38.816Z,16.30
2023-09-30T08:25:08.413Z,16.40
2023-09-30T08:27:38.285Z,16.50
2023-09-30T08:30:07.543Z,16.70
2023-09-30T08:32:37.920Z,16.70
2023-09-30T08:35:07.930Z,16.90
2023-09-30T08:37:35.853Z,16.90
2023-09-30T08:40:06.721Z,17.00
2023-09-30T08:42:36.026Z,17.10
2023-09-30T08:45:07.711Z,17.10
2023-09-30T08:47:37.306Z,17.10
2023-09-30T08:50:08.194Z,17.00
2023-09-30T08:52:40.183Z,17.10
2023-09-30T08:55:09.865Z,17.20
2023-09-30T08:57:41.386Z,17.30
2023-09-30T09:00:13.528Z,17.40
2023-09-30T09:02:43.479Z,17.50
2023-09-30T09:05:12.291Z,17.50
2023-09-30T09:07:40.584Z,17.50
2023-09-30T09:10:11.028Z,17.60
2023-09-30T09:12:40.649Z,17.60
2023-09-30T09:15:10.772Z,17.60
2023-09-30T09:17:47.023Z,17.80
2023-09-30T09:20:21.960Z,17.90
2023-09-30T09:22:53.073Z,17.80
2023-09-30T09:25:23.977Z,18.00
2023-09-30T09:27:52.479Z,17.90
2023-09-30T09:30:22.404Z,17.90
2023-09-30T09:33:01.632Z,17.80
2023-09-30T09:35:31.722Z,17.70
2023-09-30T09:38:00.902Z,17.80
2023-09-30T09:40:30.472Z,17.80
2023-09-30T09:42:59.716Z,17.80
2023-09-30T09:45:29.482Z,17.90
2023-09-30T09:48:00.067Z,18.30
2023-09-30T09:50:28.348Z,18.40
2023-09-30T09:52:59.506Z,18.50
2023-09-30T09:55:29.038Z,18.60
2023-09-30T09:57:57.890Z,18.70
2023-09-30T10:00:28.485Z,18.70
2023-09-30T10:02:57.978Z,18.70
2023-09-30T10:05:26.120Z,18.70
2023-09-30T10:07:57.168Z,18.60
2023-09-30T10:10:26.186Z,18.30
2023-09-30T10:12:54.207Z,18.30
2023-09-30T10:15:41.142Z,18.50
2023-09-30T10:18:15.067Z,18.50
2023-09-30T10:20:49.327Z,18.60
2023-09-30T10:23:26.689Z,18.70
2023-09-30T10:25:59.062Z,18.80
2023-09-30T10:28:38.224Z,19.10
2023-09-30T10:31:13.882Z,18.90
2023-09-30T10:34:19.000Z,19.00
2023-09-30T10:36:48.985Z,19.10
2023-09-30T10:39:19.113Z,18.90
2023-09-30T10:41:53.004Z,18.60
2023-09-30T10:44:36.663Z,18.40
2023-09-30T10:47:39.665Z,18.40
2023-09-30T10:50:47.469Z,18.30
2023-09-30T10:53:16.984Z,18.40
2023-09-30T10:55:47.117Z,18.20
2023-09-30T10:58:15.411Z,18.00
2023-09-30T11:00:55.097Z,18.00
2023-09-30T11:03:23.835Z,18.00
2023-09-30T11:08:31.978Z,18.00
2023-09-30T11:11:01.597Z,18.20
2023-09-30T11:13:35.603Z,18.40
2023-09-30T11:16:05.680Z,18.60
2023-09-30T11:18:34.556Z,18.70
2023-09-30T11:21:09.876Z,18.80
2023-09-30T11:23:39.598Z,18.80
2023-09-30T11:26:09.415Z,18.80
2023-09-30T11:28:40.684Z,18.60
2023-09-30T11:31:15.200Z,18.60
2023-09-30T11:33:52.710Z,18.50
2023-09-30T11:36:23.735Z,18.60
2023-09-30T11:38:54.913Z,18.60
2023-09-30T11:41:23.483Z,18.60
2023-09-30T11:44:02.874Z,18.50
2023-09-30T11:46:30.966Z,18.50
2023-09-30T11:49:00.936Z,18.60
2023-09-30T11:51:29.719Z,18.50
2023-09-30T11:53:59.496Z,18.50
2023-09-30T11:56:30.362Z,18.50
2023-09-30T11:59:00.198Z,18.70
2023-09-30T12:01:31.918Z,18.60
2023-09-30T12:04:00.612Z,18.60
2023-09-30T12:06:28.853Z,18.60
2023-09-30T12:08:58.644Z,18.70
2023-09-30T12:11:26.974Z,18.80
2023-09-30T12:13:54.940Z,18.80
2023-09-30T12:16:24.222Z,18.70
2023-09-30T12:18:52.299Z,18.60
2023-09-30T12:21:21.142Z,18.50
2023-09-30T12:23:50.001Z,18.70
2023-09-30T12:26:21.158Z,18.70
2023-09-30T12:28:49.349Z,18.60
2023-09-30T12:31:18.401Z,18.60
2023-09-30T12:33:51.516Z,18.60
2023-09-30T12:36:19.777Z,18.60
2023-09-30T12:38:47.678Z,18.50
2023-09-30T12:41:16.053Z,18.50
2023-09-30T12:43:45.265Z,18.60
2023-09-30T12:46:14.496Z,18.60
2023-09-30T12:48:43.005Z,18.60
2023-09-30T12:51:11.103Z,18.60
2023-09-30T12:53:38.952Z,18.50
2023-09-30T12:56:06.893Z,18.50
2023-09-30T12:58:34.802Z,18.40
2023-09-30T13:01:16.078Z,18.30
2023-09-30T13:03:50.587Z,18.30
2023-09-30T13:06:18.895Z,18.20
2023-09-30T13:08:48.466Z,18.20
2023-09-30T13:11:16.734Z,18.10
2023-09-30T13:13:44.746Z,18.10
2023-09-30T13:16:14.157Z,18.10
2023-09-30T13:18:42.276Z,18.30
2023-09-30T13:21:13.052Z,18.40
2023-09-30T13:23:41.170Z,18.50
2023-09-30T13:26:09.040Z,18.50
2023-09-30T13:28:36.949Z,18.40
2023-09-30T13:31:04.864Z,18.50
2023-09-30T13:33:34.773Z,18.50
2023-09-30T13:36:03.482Z,18.50
2023-09-30T13:38:31.394Z,18.40
2023-09-30T13:40:59.456Z,18.30
2023-09-30T13:43:27.706Z,18.30
2023-09-30T13:45:55.691Z,18.30
2023-09-30T13:48:24.091Z,18.30
2023-09-30T13:50:53.538Z,18.20
2023-09-30T13:53:21.463Z,18.20
2023-09-30T13:55:49.374Z,18.30
2023-09-30T13:58:17.274Z,18.40
2023-09-30T14:00:48.954Z,18.60
2023-09-30T14:03:16.954Z,18.50
2023-09-30T14:05:46.344Z,18.40
2023-09-30T14:08:15.772Z,18.40
2023-09-30T14:10:45.073Z,18.30
2023-09-30T14:13:13.594Z,18.20
2023-09-30T14:15:41.769Z,18.20
2023-09-30T14:18:10.010Z,18.10
2023-09-30T14:20:37.881Z,18.20
2023-09-30T14:23:05.847Z,18.20
2023-09-30T14:25:35.017Z,18.10
2023-09-30T14:28:02.932Z,18.10
2023-09-30T14:30:30.951Z,18.10
2023-09-30T14:32:59.075Z,18.10
2023-09-30T14:35:27.005Z,18.20
2023-09-30T14:37:55.758Z,18.10
2023-09-30T14:40:23.628Z,18.10
2023-09-30T14:42:52.854Z,18.10
2023-09-30T14:45:22.581Z,18.10
2023-09-30T14:47:50.576Z,18.10
2023-09-30T14:50:18.573Z,18.00
2023-09-30T14:52:47.011Z,17.90
2023-09-30T14:55:17.201Z,17.90
2023-09-30T14:57:45.233Z,17.90
2023-09-30T15:00:16.513Z,17.90
2023-09-30T15:02:44.463Z,17.90
2023-09-30T15:05:12.342Z,17.80
2023-09-30T15:07:40.266Z,17.80
2023-09-30T15:10:09.511Z,17.70
2023-09-30T15:12:37.635Z,17.70
2023-09-30T15:15:06.237Z,17.70
2023-09-30T15:17:35.810Z,17.70
2023-09-30T15:20:05.521Z,17.80
2023-09-30T15:22:34.186Z,17.80
2023-09-30T15:25:02.162Z,17.80
2023-09-30T15:27:30.182Z,17.90
2023-09-30T15:29:59.457Z,17.80
2023-09-30T15:32:28.871Z,17.70
2023-09-30T15:34:58.122Z,17.70
2023-09-30T15:37:25.989Z,17.70
2023-09-30T15:39:53.868Z,17.60
2023-09-30T15:42:21.821Z,17.60
2023-09-30T15:44:49.686Z,17.60
2023-09-30T15:47:17.581Z,17.50
2023-09-30T15:49:46.161Z,17.40
2023-09-30T15:52:15.620Z,17.40
2023-09-30T15:54:43.650Z,17.40
2023-09-30T15:57:11.598Z,17.40
2023-09-30T15:59:41.118Z,17.30
2023-09-30T16:02:09.070Z,17.20
2023-09-30T16:04:37.120Z,17.30
2023-09-30T16:07:05.067Z,17.20
2023-09-30T16:09:34.505Z,17.30
2023-09-30T16:12:03.170Z,17.20
2023-09-30T16:14:31.299Z,17.20
2023-09-30T16:17:01.061Z,17.10
2023-09-30T16:19:29.350Z,17.10
2023-09-30T16:21:57.404Z,17.00
2023-09-30T16:24:25.306Z,17.00
2023-09-30T16:26:54.563Z,17.00
2023-09-30T16:29:23.809Z,17.00
2023-09-30T16:31:52.286Z,17.00
2023-09-30T16:34:20.938Z,17.00
2023-09-30T16:36:48.891Z,16.90
2023-09-30T16:39:16.808Z,16.90
2023-09-30T16:41:44.700Z,16.80
2023-09-30T16:44:13.869Z,16.80
2023-09-30T16:46:41.837Z,16.70
2023-09-30T16:49:10.035Z,16.70
2023-09-30T16:51:38.131Z,16.60
2023-09-30T16:54:07.545Z,16.60
2023-09-30T16:56:35.475Z,16.60
2023-09-30T16:59:03.407Z,16.60
2023-09-30T17:01:32.842Z,16.60
2023-09-30T17:04:01.418Z,16.50
2023-09-30T17:06:29.474Z,16.50
2023-09-30T17:08:57.551Z,16.50
2023-09-30T17:11:27.184Z,16.50
2023-09-30T17:13:55.017Z,16.50
2023-09-30T17:16:23.235Z,16.40
2023-09-30T17:18:52.532Z,16.30
2023-09-30T17:21:21.255Z,16.30
2023-09-30T17:23:49.082Z,16.20
2023-09-30T17:26:17.071Z,16.20
2023-09-30T17:28:46.825Z,16.20
2023-09-30T17:31:16.119Z,16.20
2023-09-30T17:33:44.305Z,16.20
2023-09-30T17:36:13.964Z,16.10
2023-09-30T17:38:42.329Z,16.10
2023-09-30T17:41:10.385Z,16.10
2023-09-30T17:43:40.381Z,16.10
2023-09-30T17:46:11.940Z,16.10
2023-09-30T17:48:40.498Z,16.00
2023-09-30T17:51:13.273Z,16.00
2023-09-30T17:53:42.560Z,16.00
2023-09-30T17:56:15.339Z,16.00
2023-09-30T17:58:43.402Z,16.00
2023-09-30T18:01:11.393Z,15.90
2023-09-30T18:03:39.460Z,15.90
2023-09-30T18:06:07.944Z,15.90
2023-09-30T18:08:36.978Z,15.80
2023-09-30T18:11:06.256Z,15.80
2023-09-30T18:13:34.548Z,15.80
2023-09-30T18:16:03.271Z,15.80
2023-09-30T18:18:32.145Z,15.80
2023-09-30T18:21:00.156Z,15.70
2023-09-30T18:23:28.160Z,15.70
2023-09-30T18:25:56.132Z,15.70
2023-09-30T18:28:27.818Z,15.70
2023-09-30T18:30:55.761Z,15.80
2023-09-30T18:33:23.780Z,15.70
2023-09-30T18:35:53.224Z,15.70
2023-09-30T18:38:21.559Z,15.70
2023-09-30T18:40:50.001Z,15.70
2023-09-30T18:43:19.246Z,15.70
2023-09-30T18:45:49.625Z,15.70
2023-09-30T18:48:18.085Z,15.70
2023-09-30T18:50:48.626Z,15.70
2023-09-30T18:53:17.789Z,15.70
2023-09-30T18:55:48.052Z,15.70
2023-09-30T18:58:16.872Z,15.60
2023-09-30T19:00:48.206Z,15.60
2023-09-30T19:03:18.427Z,15.60
2023-09-30T19:05:48.928Z,15.60
2023-09-30T19:08:17.129Z,15.60
2023-09-30T19:10:45.037Z,15.60
2023-09-30T19:13:13.054Z,15.60
2023-09-30T19:15:41.129Z,15.60
2023-09-30T19:18:10.687Z,15.60
2023-09-30T19:20:39.977Z,15.60
2023-09-30T19:23:09.992Z,15.60
2023-09-30T19:25:39.177Z,15.60
2023-09-30T19:28:07.427Z,15.70
2023-09-30T19:30:36.496Z,15.70
2023-09-30T19:33:04.900Z,15.70
2023-09-30T19:35:34.143Z,15.70
2023-09-30T19:38:02.486Z,15.60
2023-09-30T19:40:30.471Z,15.70
2023-09-30T19:42:58.362Z,15.60
2023-09-30T19:45:26.472Z,15.60
2023-09-30T19:47:55.800Z,15.60
2023-09-30T19:50:26.250Z,15.60
2023-09-30T19:52:57.706Z,15.60
2023-09-30T19:55:25.698Z,15.60
2023-09-30T19:57:53.622Z,15.60
2023-09-30T20:00:21.785Z,15.60
2023-09-30T20:02:49.685Z,15.70
2023-09-30T20:05:17.980Z,15.70
2023-09-30T20:07:46.994Z,15.60
2023-09-30T20:10:16.280Z,15.60
2023-09-30T20:12:44.635Z,15.70
2023-09-30T20:15:12.732Z,15.70
2023-09-30T20:17:40.699Z,15.60
2023-09-30T20:20:16.501Z,15.60
2023-09-30T20:22:46.400Z,15.60
2023-09-30T20:25:16.548Z,15.60
2023-09-30T20:27:45.272Z,15.60
2023-09-30T20:30:13.597Z,15.60
2023-09-30T20:32:43.736Z,15.50
2023-09-30T20:35:11.698Z,15.50
2023-09-30T20:37:39.970Z,15.50
2023-09-30T20:40:11.350Z,15.60
2023-09-30T20:42:40.929Z,15.50
2023-09-30T20:45:10.008Z,15.50
2023-09-30T20:47:38.405Z,15.50
2023-09-30T20:50:07.400Z,15.50
2023-09-30T20:52:35.345Z,15.60
2023-09-30T20:55:06.356Z,15.50
2023-09-30T20:57:34.616Z,15.50
2023-09-30T21:00:05.450Z,15.50
2023-09-30T21:02:34.618Z,15.40
2023-09-30T21:05:02.655Z,15.40
2023-09-30T21:07:31.035Z,15.40
2023-09-30T21:09:58.916Z,15.40
2023-09-30T21:12:27.763Z,15.40
2023-09-30T21:14:55.630Z,15.40
2023-09-30T21:17:26.992Z,15.40
2023-09-30T21:19:55.729Z,15.40
2023-09-30T21:22:24.013Z,15.30
2023-09-30T21:24:52.033Z,15.30
2023-09-30T21:27:19.885Z,15.30
2023-09-30T21:29:47.965Z,15.30
2023-09-30T21:32:15.992Z,15.40
2023-09-30T21:34:45.984Z,15.30
2023-09-30T21:37:13.885Z,15.30
2023-09-30T21:39:41.804Z,15.40
2023-09-30T21:42:09.959Z,15.30
2023-09-30T21:44:37.961Z,15.30
2023-09-30T21:47:05.948Z,15.30
2023-09-30T21:49:33.914Z,15.30
2023-09-30T21:52:04.658Z,15.30
2023-09-30T21:54:32.632Z,15.30
2023-09-30T21:57:00.652Z,15.30
2023-09-30T21:59:28.531Z,15.30
2023-09-30T22:01:56.548Z,15.40
2023-09-30T22:04:24.526Z,15.30
2023-09-30T22:06:52.502Z,15.30
2023-09-30T22:09:21.772Z,15.30
2023-09-30T22:11:53.133Z,15.30
2023-09-30T22:14:22.288Z,15.30
2023-09-30T22:16:51.402Z,15.30
2023-09-30T22:19:19.687Z,15.30
2023-09-30T22:21:47.611Z,15.20
2023-09-30T22:24:16.639Z,15.30
2023-09-30T22:26:45.971Z,15.20
2023-09-30T22:29:13.926Z,15.20
2023-09-30T22:31:42.585Z,15.20
2023-09-30T22:34:10.743Z,15.20
2023-09-30T22:36:46.260Z,15.20
2023-09-30T22:39:16.215Z,15.20
2023-09-30T22:41:47.142Z,15.20
2023-09-30T22:44:15.804Z,15.20
2023-09-30T22:46:45.116Z,15.20
2023-09-30T22:49:13.156Z,15.20
2023-09-30T22:51:41.085Z,15.10
2023-09-30T22:54:08.983Z,15.20
2023-09-30T22:56:36.881Z,15.10
2023-09-30T22:59:08.379Z,15.10
2023-09-30T23:01:37.410Z,15.10
2023-09-30T23:04:06.100Z,15.10
2023-09-30T23:06:34.828Z,15.10
2023-09-30T23:09:05.982Z,15.10
2023-09-30T23:11:33.988Z,15.00
2023-09-30T23:14:03.554Z,15.10
2023-09-30T23:16:33.690Z,15.10
2023-09-30T23:19:05.545Z,15.10
2023-09-30T23:21:33.582Z,15.10
2023-09-30T23:24:02.968Z,15.10
2023-09-30T23:26:30.939Z,15.10
2023-09-30T23:28:59.853Z,15.10
2023-09-30T23:31:28.427Z,15.10
2023-09-30T23:33:57.938Z,15.10
2023-09-30T23:36:26.089Z,15.10
2023-09-30T23:38:54.705Z,15.10
2023-09-30T23:41:25.003Z,15.10
2023-09-30T23:43:55.073Z,15.10
2023-09-30T23:46:24.361Z,15.10
2023-09-30T23:48:52.973Z,15.10
2023-09-30T23:51:22.552Z,15.10
2023-09-30T23:53:50.456Z,15.10
2023-09-30T23:56:18.334Z,15.10
2023-09-30T23:58:48.555Z,15.10
